createdAt,value
2023-01-03T00:00:50.514Z,77985.91
2023-01-03T00:03:17.227Z,77979.97
2023-01-03T00:05:44.859Z,77970.00
2023-01-03T00:08:11.492Z,77968.03
2023-01-03T00:10:38.463Z,77974.00
2023-01-03T00:13:05.552Z,77960.06
2023-01-03T00:15:35.775Z,77960.06
2023-01-03T00:18:02.667Z,77948.16
2023-01-03T00:20:29.081Z,77954.13
2023-01-03T00:22:55.694Z,77954.13
2023-01-03T00:25:22.265Z,77940.19
2023-01-03T00:27:48.673Z,77956.09
2023-01-03T00:30:15.070Z,77958.09
2023-01-03T00:32:41.552Z,77960.06
2023-01-03T00:35:08.470Z,77977.97
2023-01-03T00:37:34.945Z,77966.03
2023-01-03T00:40:01.803Z,77958.09
2023-01-03T00:42:28.417Z,77956.09
2023-01-03T00:44:54.829Z,77960.06
2023-01-03T00:47:21.622Z,77960.06
2023-01-03T00:49:48.067Z,77946.16
2023-01-03T00:52:14.440Z,77956.09
2023-01-03T00:54:40.914Z,77977.97
2023-01-03T00:57:07.365Z,77979.97
2023-01-03T00:59:33.796Z,77983.94
2023-01-03T01:02:00.326Z,77999.84
2023-01-03T01:04:29.858Z,78027.66
2023-01-03T01:07:01.954Z,78025.69
2023-01-03T01:09:31.557Z,78041.59
2023-01-03T01:11:58.548Z,78055.50
2023-01-03T01:14:27.448Z,78045.56
2023-01-03T01:17:06.404Z,78059.47
2023-01-03T01:19:36.407Z,78059.47
2023-01-03T01:22:03.310Z,78059.47
2023-01-03T01:24:29.916Z,78073.41
2023-01-03T01:26:56.529Z,78075.38
2023-01-03T01:29:23.030Z,78097.25
2023-01-03T01:31:49.617Z,78105.19
2023-01-03T01:34:16.333Z,78125.09
2023-01-03T01:36:43.952Z,78133.03
2023-01-03T01:39:13.978Z,78129.06
2023-01-03T01:42:00.087Z,78152.91
2023-01-03T01:44:52.189Z,78158.88
2023-01-03T01:47:27.548Z,78162.84
2023-01-03T01:50:12.753Z,78176.78
2023-01-03T01:52:42.267Z,78160.88
2023-01-03T01:55:13.325Z,78158.88
2023-01-03T01:57:41.377Z,78162.84
2023-01-03T02:00:09.755Z,78188.69
2023-01-03T02:02:36.553Z,78188.69
2023-01-03T02:05:06.805Z,78190.69
2023-01-03T02:07:34.185Z,78188.69
2023-01-03T02:10:00.936Z,78186.72
2023-01-03T02:12:58.794Z,78204.59
2023-01-03T02:15:33.047Z,78208.59
2023-01-03T02:18:28.104Z,78206.59
2023-01-03T02:20:57.455Z,78210.56
2023-01-03T02:24:01.951Z,78228.47
2023-01-03T02:26:47.144Z,78236.41
2023-01-03T02:29:46.853Z,78258.28
2023-01-03T02:32:24.602Z,78262.25
2023-01-03T02:35:15.590Z,78270.22
2023-01-03T02:37:46.907Z,78276.19
2023-01-03T02:40:34.872Z,78278.16
2023-01-03T02:43:07.914Z,78292.09
2023-01-03T02:46:00.545Z,78286.13
2023-01-03T02:48:58.013Z,78282.16
2023-01-03T02:51:36.834Z,78298.06
2023-01-03T02:54:07.821Z,78300.03
2023-01-03T02:56:39.411Z,78300.03
2023-01-03T02:59:12.175Z,78315.94
2023-01-03T03:01:44.943Z,78317.94
2023-01-03T03:04:13.446Z,78319.91
2023-01-03T03:06:57.617Z,78335.81
2023-01-03T03:09:24.400Z,78349.75
2023-01-03T03:12:12.186Z,78355.72
2023-01-03T03:14:51.679Z,78363.66
2023-01-03T03:17:24.659Z,78367.63
2023-01-03T03:20:15.412Z,78361.66
2023-01-03T03:23:08.949Z,78393.47
2023-01-03T03:25:47.849Z,78379.56
2023-01-03T03:28:36.009Z,78397.47
2023-01-03T03:31:15.357Z,78411.38
2023-01-03T03:33:45.137Z,78415.34
2023-01-03T03:36:26.740Z,78417.34
2023-01-03T03:38:53.304Z,78421.31
2023-01-03T03:41:55.997Z,78421.31
2023-01-03T03:45:01.729Z,78415.34
2023-01-03T03:47:47.413Z,78415.34
2023-01-03T03:50:35.957Z,78417.34
2023-01-03T03:53:07.153Z,78419.31
2023-01-03T03:55:44.682Z,78431.25
2023-01-03T03:58:16.854Z,78447.16
2023-01-03T04:00:46.281Z,78467.06
2023-01-03T04:03:14.405Z,78477.00
2023-01-03T04:05:45.998Z,78484.94
2023-01-03T04:08:12.427Z,78492.91
2023-01-03T04:10:38.965Z,78488.91
2023-01-03T04:13:05.651Z,78494.88
2023-01-03T04:15:32.119Z,78496.88
2023-01-03T04:17:58.513Z,78504.81
2023-01-03T04:20:25.353Z,78496.88
2023-01-03T04:22:51.725Z,78520.72
2023-01-03T04:25:18.131Z,78516.75
2023-01-03T04:27:44.543Z,78526.69
2023-01-03T04:30:11.806Z,78522.72
2023-01-03T04:32:38.725Z,78540.63
2023-01-03T04:35:06.060Z,78530.69
2023-01-03T04:37:32.688Z,78538.63
2023-01-03T04:39:59.103Z,78538.63
2023-01-03T04:42:44.336Z,78532.66
2023-01-03T04:45:11.079Z,78532.66
2023-01-03T04:47:37.465Z,78540.63
2023-01-03T04:50:04.160Z,78558.50
2023-01-03T04:52:30.574Z,78574.41
2023-01-03T04:54:57.003Z,78570.44
2023-01-03T04:57:25.165Z,78584.34
2023-01-03T04:59:51.635Z,78584.34
2023-01-03T05:02:18.213Z,78596.28
2023-01-03T05:04:44.745Z,78586.34
2023-01-03T05:07:11.191Z,78580.38
2023-01-03T05:09:37.648Z,78596.28
2023-01-03T05:12:04.396Z,78596.28
2023-01-03T05:14:30.824Z,78614.19
2023-01-03T05:16:57.317Z,78614.19
2023-01-03T05:19:23.761Z,78628.09
2023-01-03T05:22:08.950Z,78649.97
2023-01-03T05:24:53.945Z,78657.94
2023-01-03T05:27:20.393Z,78659.91
2023-01-03T05:29:50.994Z,78649.97
2023-01-03T05:32:17.521Z,78673.84
2023-01-03T05:34:43.967Z,78679.81
2023-01-03T05:37:10.489Z,78691.72
2023-01-03T05:39:36.915Z,78695.72
2023-01-03T05:42:03.856Z,78701.66
2023-01-03T05:44:34.523Z,78693.72
2023-01-03T05:47:03.017Z,78713.59
2023-01-03T05:49:29.449Z,78719.56
2023-01-03T05:51:55.975Z,78729.50
2023-01-03T05:54:22.381Z,78719.56
2023-01-03T05:56:48.873Z,78721.56
2023-01-03T05:59:15.969Z,78713.59
2023-01-03T06:01:42.509Z,78723.53
2023-01-03T06:04:09.173Z,78737.47
2023-01-03T06:06:35.653Z,78735.47
2023-01-03T06:09:02.128Z,78733.50
2023-01-03T06:11:28.537Z,78721.56
2023-01-03T06:13:55.153Z,78741.44
2023-01-03T06:16:47.575Z,78753.38
2023-01-03T06:19:14.002Z,78755.34
2023-01-03T06:21:41.590Z,78759.34
2023-01-03T06:24:09.235Z,78753.38
2023-01-03T06:26:36.172Z,78771.28
2023-01-03T06:29:03.050Z,78769.28
2023-01-03T06:31:29.617Z,78769.28
2023-01-03T06:33:56.354Z,78763.31
2023-01-03T06:36:25.898Z,78779.22
2023-01-03T06:41:26.639Z,78793.13
2023-01-03T06:43:56.184Z,78799.09
2023-01-03T06:46:41.323Z,78797.13
2023-01-03T06:49:33.801Z,78801.09
2023-01-03T06:52:20.220Z,78813.03
2023-01-03T06:54:46.705Z,78817.00
2023-01-03T06:57:26.024Z,78830.91
2023-01-03T06:59:53.500Z,78822.97
2023-01-03T07:02:20.047Z,78844.84
2023-01-03T07:04:46.598Z,78840.88
2023-01-03T07:07:12.989Z,78856.78
2023-01-03T07:09:39.372Z,78850.81
2023-01-03T07:12:25.814Z,78864.72
2023-01-03T07:14:52.176Z,78862.75
2023-01-03T07:17:18.695Z,78854.78
2023-01-03T07:19:45.279Z,78876.66
2023-01-03T07:22:11.665Z,78876.66
2023-01-03T07:24:38.063Z,78878.66
2023-01-03T07:27:04.466Z,78872.69
2023-01-03T07:29:30.856Z,78878.66
2023-01-03T07:31:59.012Z,78886.59
2023-01-03T07:34:25.411Z,78884.59
2023-01-03T07:36:51.822Z,78890.56
2023-01-03T07:39:18.220Z,78882.63
2023-01-03T07:42:03.180Z,78886.59
2023-01-03T07:44:29.545Z,78892.56
2023-01-03T07:46:56.155Z,78888.59
2023-01-03T07:49:22.570Z,78884.59
2023-01-03T07:51:48.935Z,78898.53
2023-01-03T07:54:15.333Z,78888.59
2023-01-03T07:56:41.710Z,78882.63
2023-01-03T07:59:08.990Z,78890.56
2023-01-03T08:01:35.452Z,78880.63
2023-01-03T08:04:01.951Z,78878.66
2023-01-03T08:06:28.362Z,78876.66
2023-01-03T08:09:13.655Z,78862.75
2023-01-03T08:11:58.409Z,78882.63
2023-01-03T08:14:26.745Z,78876.66
2023-01-03T08:16:54.384Z,78876.66
2023-01-03T08:19:20.782Z,78876.66
2023-01-03T08:21:47.200Z,78892.56
2023-01-03T08:24:13.632Z,78886.59
2023-01-03T08:26:40.077Z,78882.63
2023-01-03T08:29:06.968Z,78878.66
2023-01-03T08:31:36.803Z,78876.66
2023-01-03T08:34:09.013Z,78882.63
2023-01-03T08:36:45.373Z,78876.66
2023-01-03T08:39:16.856Z,78882.63
2023-01-03T08:41:47.063Z,78882.63
2023-01-03T08:44:14.302Z,78894.56
2023-01-03T08:46:45.934Z,78902.50
2023-01-03T08:49:13.233Z,78904.50
2023-01-03T08:51:39.626Z,78906.47
2023-01-03T08:54:06.044Z,78898.53
2023-01-03T08:56:34.686Z,78894.56
2023-01-03T08:59:01.608Z,78892.56
2023-01-03T09:01:28.310Z,78884.59
2023-01-03T09:03:55.060Z,78892.56
2023-01-03T09:06:21.619Z,78896.53
2023-01-03T09:08:48.070Z,78890.56
2023-01-03T09:11:14.546Z,78886.59
2023-01-03T09:13:41.845Z,78882.63
2023-01-03T09:16:13.383Z,78882.63
2023-01-03T09:18:41.273Z,78874.66
2023-01-03T09:21:08.368Z,78870.69
2023-01-03T09:23:36.021Z,78838.88
2023-01-03T09:26:03.240Z,78824.97
2023-01-03T09:28:30.208Z,78813.03
2023-01-03T09:30:56.950Z,78820.97
2023-01-03T09:33:23.693Z,78799.09
2023-01-03T09:35:52.278Z,78787.19
2023-01-03T09:38:19.051Z,78779.22
2023-01-03T09:40:46.832Z,78763.31
2023-01-03T09:43:25.024Z,78749.41
2023-01-03T09:45:58.310Z,78731.50
2023-01-03T09:48:43.334Z,78697.69
2023-01-03T09:51:38.231Z,78725.53
2023-01-03T09:54:28.784Z,78711.63
2023-01-03T09:57:13.629Z,78719.56
2023-01-03T09:59:58.419Z,78729.50
2023-01-03T10:03:05.462Z,78731.50
2023-01-03T10:06:11.241Z,78729.50
2023-01-03T10:08:52.448Z,78721.56
2023-01-03T10:11:28.910Z,78735.47
2023-01-03T10:14:07.540Z,78721.56
2023-01-03T10:16:59.893Z,78719.56
2023-01-03T10:20:05.113Z,78707.63
2023-01-03T10:22:33.015Z,78711.63
2023-01-03T10:25:05.372Z,78701.66
2023-01-03T10:27:48.446Z,78691.72
2023-01-03T10:30:18.549Z,78691.72
2023-01-03T10:33:06.402Z,78675.81
2023-01-03T10:35:36.623Z,78673.84
2023-01-03T10:38:03.799Z,78669.84
2023-01-03T10:40:41.751Z,78661.91
2023-01-03T10:43:25.673Z,78665.88
2023-01-03T10:45:55.145Z,78657.94
2023-01-03T10:48:22.145Z,78647.97
2023-01-03T10:50:50.730Z,78630.09
2023-01-03T10:53:21.152Z,78630.09
2023-01-03T10:55:51.399Z,78632.06
2023-01-03T10:58:34.122Z,78630.09
2023-01-03T11:01:19.544Z,78616.16
2023-01-03T11:04:07.763Z,78628.09
2023-01-03T11:06:34.220Z,78616.16
2023-01-03T11:09:10.151Z,78610.22
2023-01-03T11:11:41.425Z,78626.13
2023-01-03T11:14:23.544Z,78618.16
2023-01-03T11:16:59.543Z,78614.19
2023-01-03T11:19:29.023Z,78620.16
2023-01-03T11:22:05.976Z,78608.22
2023-01-03T11:24:52.844Z,78586.34
2023-01-03T11:27:40.170Z,78578.41
2023-01-03T11:30:25.546Z,78562.50
2023-01-03T11:33:35.774Z,78558.50
2023-01-03T11:36:22.431Z,78560.50
2023-01-03T11:39:26.345Z,78558.50
2023-01-03T11:42:18.863Z,78560.50
2023-01-03T11:45:15.499Z,78562.50
2023-01-03T11:48:16.320Z,78574.41
2023-01-03T11:50:55.866Z,78570.44
2023-01-03T11:53:51.588Z,78570.44
2023-01-03T11:56:36.119Z,78560.50
2023-01-03T11:59:43.518Z,78586.34
2023-01-03T12:02:32.033Z,78572.44
2023-01-03T12:05:17.974Z,78558.50
2023-01-03T12:08:12.330Z,78554.53
2023-01-03T12:10:58.537Z,78566.47
2023-01-03T12:13:42.120Z,78556.53
2023-01-03T12:16:15.077Z,78560.50
2023-01-03T12:18:41.515Z,78554.53
2023-01-03T12:21:16.200Z,78536.63
2023-01-03T12:23:48.555Z,78542.59
2023-01-03T12:26:16.066Z,78536.63
2023-01-03T12:28:59.949Z,78514.78
2023-01-03T12:31:36.145Z,78498.88
2023-01-03T12:34:05.691Z,78496.88
2023-01-03T12:36:34.748Z,78520.72
2023-01-03T12:39:32.933Z,78520.72
2023-01-03T12:42:27.200Z,78496.88
2023-01-03T12:45:23.503Z,78490.91
2023-01-03T12:48:02.583Z,78488.91
2023-01-03T12:50:40.312Z,78498.88
2023-01-03T12:53:13.644Z,78526.69
2023-01-03T12:55:59.040Z,78494.88
2023-01-03T12:58:40.061Z,78538.63
2023-01-03T13:01:24.551Z,78540.63
2023-01-03T13:03:56.068Z,78532.66
2023-01-03T13:06:28.720Z,78540.63
2023-01-03T13:09:24.301Z,78542.59
2023-01-03T13:11:56.143Z,78562.50
2023-01-03T13:14:25.266Z,78562.50
2023-01-03T13:16:56.671Z,78594.31
2023-01-03T13:19:22.991Z,78624.13
2023-01-03T13:21:49.333Z,78626.13
2023-01-03T13:24:46.846Z,78620.16
2023-01-03T13:27:28.266Z,78647.97
2023-01-03T13:29:58.831Z,78608.22
2023-01-03T13:32:30.519Z,78622.13
2023-01-03T13:34:59.558Z,78624.13
2023-01-03T13:37:31.874Z,78624.13
2023-01-03T13:40:10.447Z,78649.97
2023-01-03T13:42:39.336Z,78661.91
2023-01-03T13:45:15.211Z,78671.84
2023-01-03T13:47:47.718Z,78671.84
2023-01-03T13:50:37.578Z,78689.75
2023-01-03T13:53:09.890Z,78685.75
2023-01-03T13:55:41.164Z,78687.75
2023-01-03T13:58:27.179Z,78685.75
2023-01-03T14:01:06.171Z,78681.78
2023-01-03T14:03:50.139Z,78699.69
2023-01-03T14:06:50.159Z,78689.75
2023-01-03T14:09:42.705Z,78701.66
2023-01-03T14:12:41.827Z,78689.75
2023-01-03T14:15:26.042Z,78717.59
2023-01-03T14:18:00.571Z,78731.50
2023-01-03T14:20:30.978Z,78727.53
2023-01-03T14:23:17.085Z,78733.50
2023-01-03T14:25:50.445Z,78737.47
2023-01-03T14:28:26.026Z,78741.44
2023-01-03T14:30:55.507Z,78753.38
2023-01-03T14:33:31.310Z,78749.41
2023-01-03T14:36:07.525Z,78759.34
2023-01-03T14:38:38.733Z,78777.22
2023-01-03T14:41:05.820Z,78777.22
2023-01-03T14:43:35.265Z,78793.13
2023-01-03T14:46:08.211Z,78807.06
2023-01-03T14:48:34.701Z,78807.06
2023-01-03T14:51:05.847Z,78820.97
2023-01-03T14:53:34.119Z,78828.94
2023-01-03T14:56:01.381Z,78846.84
2023-01-03T14:58:39.383Z,78854.78
2023-01-03T15:01:08.633Z,78866.72
2023-01-03T15:03:38.104Z,78876.66
2023-01-03T15:06:24.689Z,78880.63
2023-01-03T15:08:56.862Z,78902.50
2023-01-03T15:11:26.245Z,78912.44
2023-01-03T15:13:57.865Z,78922.41
2023-01-03T15:16:30.955Z,78932.34
2023-01-03T15:19:22.393Z,78942.28
2023-01-03T15:21:49.040Z,78956.19
2023-01-03T15:24:22.263Z,78938.31
2023-01-03T15:26:53.183Z,78928.34
2023-01-03T15:29:24.965Z,78966.16
2023-01-03T15:31:57.990Z,78984.03
2023-01-03T15:34:44.686Z,78999.94
2023-01-03T15:37:15.487Z,79021.81
2023-01-03T15:39:54.210Z,79033.75
2023-01-03T15:42:45.903Z,79031.75
2023-01-03T15:45:19.951Z,79049.66
2023-01-03T15:47:49.340Z,79059.59
2023-01-03T15:50:18.914Z,79055.63
2023-01-03T15:52:49.309Z,79077.50
2023-01-03T15:55:17.191Z,79065.56
2023-01-03T15:57:51.121Z,79095.41
2023-01-03T16:00:21.216Z,79085.47
2023-01-03T16:02:48.485Z,79095.41
2023-01-03T16:05:21.569Z,79105.34
2023-01-03T16:07:49.313Z,79123.25
2023-01-03T16:10:15.888Z,79131.19
2023-01-03T16:12:43.003Z,79143.13
2023-01-03T16:15:18.604Z,79147.09
2023-01-03T16:17:45.675Z,79153.06
2023-01-03T16:20:17.903Z,79151.09
2023-01-03T16:22:57.621Z,79155.06
2023-01-03T16:25:27.456Z,79176.94
2023-01-03T16:27:53.901Z,79155.06
2023-01-03T16:30:20.476Z,79170.97
2023-01-03T16:32:46.855Z,79172.97
2023-01-03T16:35:18.923Z,79186.88
2023-01-03T16:37:45.430Z,79200.81
2023-01-03T16:40:17.488Z,79212.72
2023-01-03T16:42:43.881Z,79204.78
2023-01-03T16:45:10.790Z,79208.75
2023-01-03T16:47:37.559Z,79220.69
2023-01-03T16:50:14.223Z,79212.72
2023-01-03T16:52:44.832Z,79212.72
2023-01-03T16:55:28.320Z,79216.72
2023-01-03T16:57:55.588Z,79212.72
2023-01-03T17:00:31.071Z,79218.69
2023-01-03T17:03:01.795Z,79204.78
2023-01-03T17:05:32.994Z,79210.75
2023-01-03T17:08:12.624Z,79220.69
2023-01-03T17:10:41.708Z,79222.69
2023-01-03T17:13:24.254Z,79226.66
2023-01-03T17:15:50.655Z,79246.53
2023-01-03T17:18:19.893Z,79266.44
2023-01-03T17:20:51.762Z,79260.47
2023-01-03T17:23:18.586Z,79276.38
2023-01-03T17:25:44.980Z,79302.22
2023-01-03T17:28:11.555Z,79284.31
2023-01-03T17:30:38.188Z,79300.25
2023-01-03T17:33:04.871Z,79298.25
2023-01-03T17:35:31.650Z,79306.19
2023-01-03T17:38:24.671Z,79314.16
2023-01-03T17:40:47.018Z,79332.06
2023-01-03T17:43:18.433Z,79332.06
2023-01-03T17:46:03.556Z,79320.13
2023-01-03T17:48:48.446Z,79314.16
2023-01-03T17:51:15.029Z,79310.19
2023-01-03T17:53:42.655Z,79292.28
2023-01-03T17:56:13.588Z,79326.09
2023-01-03T17:58:40.245Z,79326.09
2023-01-03T18:01:08.673Z,79344.00
2023-01-03T18:03:36.891Z,79345.97
2023-01-03T18:06:07.442Z,79345.97
2023-01-03T18:08:34.526Z,79322.13
2023-01-03T18:11:01.134Z,79342.00
2023-01-03T18:13:31.933Z,79353.94
2023-01-03T18:15:58.900Z,79349.97
2023-01-03T18:18:26.525Z,79363.88
2023-01-03T18:20:54.058Z,79351.94
2023-01-03T18:23:35.975Z,79342.00
2023-01-03T18:26:08.044Z,79300.25
2023-01-03T18:28:34.507Z,79290.28
2023-01-03T18:31:01.028Z,79312.16
2023-01-03T18:33:27.562Z,79312.16
2023-01-03T18:35:54.212Z,79338.03
2023-01-03T18:38:32.910Z,79342.00
2023-01-03T18:41:04.913Z,79347.97
2023-01-03T18:43:32.943Z,79353.94
2023-01-03T18:45:59.445Z,79318.13
2023-01-03T18:48:25.883Z,79320.13
2023-01-03T18:50:58.319Z,79294.28
2023-01-03T18:53:29.162Z,79296.25
2023-01-03T18:55:55.981Z,79310.19
2023-01-03T18:58:34.114Z,79314.16
2023-01-03T19:01:01.035Z,79334.03
2023-01-03T19:03:29.947Z,79330.06
2023-01-03T19:05:58.469Z,79326.09
2023-01-03T19:08:27.155Z,79320.13
2023-01-03T19:10:53.648Z,79324.09
2023-01-03T19:13:25.019Z,79308.19
2023-01-03T19:15:51.551Z,79288.31
2023-01-03T19:18:18.023Z,79292.28
2023-01-03T19:20:44.810Z,79278.38
2023-01-03T19:23:26.667Z,79278.38
2023-01-03T19:25:54.902Z,79292.28
2023-01-03T19:28:25.499Z,79304.22
2023-01-03T19:30:52.463Z,79300.25
2023-01-03T19:33:19.480Z,79302.22
2023-01-03T19:35:46.298Z,79300.25
2023-01-03T19:38:13.239Z,79300.25
2023-01-03T19:40:43.000Z,79264.44
2023-01-03T19:43:21.605Z,79270.41
2023-01-03T19:45:49.055Z,79258.47
2023-01-03T19:48:21.529Z,79260.47
2023-01-03T19:50:49.066Z,79278.38
2023-01-03T19:53:15.980Z,79294.28
2023-01-03T19:55:52.060Z,79314.16
2023-01-03T19:58:25.256Z,79314.16
2023-01-03T20:00:52.899Z,79334.03
2023-01-03T20:03:28.931Z,79338.03
2023-01-03T20:05:56.046Z,79353.94
2023-01-03T20:08:22.841Z,79349.97
2023-01-03T20:10:51.232Z,79353.94
2023-01-03T20:13:20.831Z,79349.97
2023-01-03T20:15:49.474Z,79347.97
2023-01-03T20:18:27.499Z,79351.94
2023-01-03T20:21:00.955Z,79365.88
2023-01-03T20:23:31.738Z,79369.84
2023-01-03T20:25:58.958Z,79377.81
2023-01-03T20:28:31.412Z,79375.81
2023-01-03T20:30:59.656Z,79365.88
2023-01-03T20:33:27.286Z,79353.94
2023-01-03T20:36:11.063Z,79338.03
2023-01-03T20:38:39.603Z,79334.03
2023-01-03T20:41:06.025Z,79326.09
2023-01-03T20:43:32.459Z,79322.13
2023-01-03T20:45:59.101Z,79302.22
2023-01-03T20:48:26.691Z,79306.19
2023-01-03T20:50:53.737Z,79318.13
2023-01-03T20:53:25.610Z,79306.19
2023-01-03T20:55:52.920Z,79310.19
2023-01-03T20:58:21.942Z,79302.22
2023-01-03T21:00:48.402Z,79308.19
2023-01-03T21:03:15.096Z,79302.22
2023-01-03T21:05:41.718Z,79302.22
2023-01-03T21:08:33.230Z,79304.22
2023-01-03T21:10:59.773Z,79304.22
2023-01-03T21:13:26.174Z,79292.28
2023-01-03T21:15:52.568Z,79280.34
2023-01-03T21:18:19.018Z,79270.41
2023-01-03T21:20:45.625Z,79268.41
2023-01-03T21:23:20.338Z,79252.50
2023-01-03T21:25:47.298Z,79264.44
2023-01-03T21:28:13.829Z,79250.53
2023-01-03T21:30:41.270Z,79250.53
2023-01-03T21:33:16.314Z,79232.63
2023-01-03T21:35:42.776Z,79226.66
2023-01-03T21:38:09.749Z,79218.69
2023-01-03T21:40:36.172Z,79206.75
2023-01-03T21:43:06.126Z,79202.78
2023-01-03T21:45:32.632Z,79184.88
2023-01-03T21:48:00.374Z,79182.91
2023-01-03T21:50:28.160Z,79176.94
2023-01-03T21:52:54.649Z,79174.94
2023-01-03T21:55:22.401Z,79168.97
2023-01-03T21:57:49.347Z,79163.00
2023-01-03T22:00:16.980Z,79159.03
2023-01-03T22:03:02.912Z,79143.13
2023-01-03T22:05:29.895Z,79145.13
2023-01-03T22:07:56.631Z,79133.19
2023-01-03T22:10:24.089Z,79129.22
2023-01-03T22:13:02.637Z,79133.19
2023-01-03T22:15:29.027Z,79141.13
2023-01-03T22:17:55.631Z,79135.19
2023-01-03T22:20:25.419Z,79139.16
2023-01-03T22:22:52.570Z,79129.22
2023-01-03T22:25:23.365Z,79125.22
2023-01-03T22:27:50.013Z,79111.31
2023-01-03T22:30:19.039Z,79111.31
2023-01-03T22:32:46.419Z,79109.31
2023-01-03T22:35:14.762Z,79111.31
2023-01-03T22:37:41.391Z,79097.38
2023-01-03T22:40:12.154Z,79111.31
2023-01-03T22:42:38.747Z,79101.38
2023-01-03T22:45:06.338Z,79085.47
2023-01-03T22:47:34.476Z,79079.50
2023-01-03T22:50:00.867Z,79063.59
2023-01-03T22:52:27.264Z,79077.50
2023-01-03T22:54:53.733Z,79085.47
2023-01-03T22:57:20.105Z,79087.44
2023-01-03T22:59:46.499Z,79107.34
2023-01-03T23:02:12.970Z,79115.28
2023-01-03T23:04:39.643Z,79117.28
2023-01-03T23:07:06.078Z,79123.25
2023-01-03T23:09:32.581Z,79121.25
2023-01-03T23:12:17.780Z,79131.19
2023-01-03T23:14:44.338Z,79133.19
2023-01-03T23:17:29.572Z,79119.25
2023-01-03T23:19:55.943Z,79119.25
2023-01-03T23:22:22.355Z,79127.22
2023-01-03T23:24:48.792Z,79121.25
2023-01-03T23:27:15.172Z,79135.19
2023-01-03T23:29:41.564Z,79133.19
2023-01-03T23:32:07.968Z,79145.13
2023-01-03T23:34:34.349Z,79137.16
2023-01-03T23:37:00.695Z,79149.09
2023-01-03T23:39:27.175Z,79149.09
2023-01-03T23:41:53.821Z,79147.09
2023-01-03T23:44:20.234Z,79139.16
2023-01-03T23:46:46.616Z,79151.09
2023-01-03T23:49:13.347Z,79147.09
2023-01-03T23:51:39.821Z,79151.09
2023-01-03T23:54:06.226Z,79139.16
2023-01-03T23:56:32.693Z,79137.16
2023-01-03T23:58:59.163Z,79127.22
